createdAt,value
2022-12-08T10:22:57.563Z,88550.34
2022-12-08T10:33:02.837Z,88550.34
2022-12-08T10:43:16.178Z,89477.84
2022-12-08T10:53:27.373Z,89747.91
2022-12-08T11:03:48.966Z,89858.78
2022-12-08T11:13:55.317Z,90029.44
2022-12-08T11:24:12.074Z,90174.41
2022-12-08T11:34:24.174Z,90345.59
2022-12-08T11:44:39.358Z,90464.25
2022-12-08T11:54:49.721Z,90508.72
2022-12-08T12:05:40.127Z,90468.72
2022-12-08T12:16:08.835Z,90485.69
2022-12-08T12:26:21.794Z,90418.09
2022-12-08T12:36:28.159Z,90387.94
2022-12-08T12:46:49.958Z,90334.91
2022-12-08T12:57:14.293Z,90223.91
2022-12-08T13:07:26.956Z,90128.19
2022-12-08T13:17:35.441Z,90075.00
2022-12-08T13:27:53.456Z,90047.28
2022-12-08T13:38:00.375Z,89926.03
2022-12-08T13:59:23.639Z,89799.62
2022-12-08T14:09:38.583Z,89656.91
2022-12-08T14:19:48.284Z,89589.34
2022-12-08T14:29:57.312Z,89510.06
2022-12-08T14:40:22.898Z,89440.69
2022-12-08T14:50:46.292Z,89474.34
2022-12-08T15:00:55.654Z,89395.72
2022-12-08T15:11:23.765Z,89359.09
2022-12-08T15:21:32.119Z,89302.66
2022-12-08T15:31:38.586Z,89205.81
2022-12-08T15:41:44.860Z,89122.34
2022-12-08T15:51:56.576Z,89052.41
2022-12-08T16:02:19.291Z,89025.84
2022-12-08T16:23:34.603Z,89063.63
2022-12-08T16:33:39.849Z,89203.06
2022-12-08T16:43:46.072Z,89349.94
2022-12-08T16:53:52.787Z,89388.09
2022-12-08T17:14:25.439Z,89283.56
2022-12-08T17:24:32.318Z,89338.44
2022-12-08T17:34:38.629Z,89314.97
2022-12-08T17:44:47.688Z,89319.00
2022-12-08T17:54:53.966Z,89208.66
2022-12-08T18:05:00.239Z,89142.66
2022-12-08T18:15:08.530Z,89160.94
2022-12-08T18:25:14.892Z,89141.56
2022-12-08T18:35:21.512Z,89072.16
2022-12-08T18:45:27.873Z,89029.81
2022-12-08T18:55:34.162Z,89054.28
2022-12-08T19:05:40.432Z,89021.16
2022-12-08T19:15:46.737Z,89961.03
2022-12-08T19:25:53.383Z,90006.22
2022-12-08T19:35:59.680Z,90580.66
2022-12-08T19:46:05.021Z,90642.00
2022-12-08T19:56:11.423Z,92522.19
2022-12-08T20:06:19.216Z,92486.22
2022-12-08T20:16:25.697Z,92486.84
2022-12-08T20:26:32.026Z,92555.81
2022-12-08T20:36:38.406Z,92593.69
2022-12-08T20:46:49.216Z,92592.25
2022-12-08T20:56:56.105Z,92594.16
2022-12-08T21:07:02.510Z,92602.16
2022-12-08T21:17:09.322Z,92580.91
2022-12-08T21:27:15.843Z,92562.97
2022-12-08T21:37:22.245Z,92609.97
2022-12-08T21:47:28.649Z,92609.34
2022-12-08T21:57:35.885Z,92595.13
2022-12-08T22:07:42.743Z,92603.44
2022-12-08T22:17:49.480Z,92639.53
2022-12-08T22:27:55.922Z,92663.16
2022-12-08T22:38:02.225Z,92681.53
2022-12-08T22:48:08.519Z,92792.88
2022-12-08T22:58:15.385Z,92828.50
2022-12-08T23:08:21.740Z,92826.41
2022-12-08T23:18:28.123Z,101039.72
2022-12-08T23:28:34.753Z,101189.75
2022-12-08T23:38:41.541Z,101295.00
2022-12-08T23:48:48.025Z,101384.56
2022-12-08T23:58:54.548Z,101519.44
